createdAt,value
2023-05-10T00:01:18.843Z,76766.41
2023-05-10T00:02:52.291Z,76766.41
2023-05-10T00:04:28.695Z,76786.19
2023-05-10T00:06:02.065Z,76764.44
2023-05-10T00:07:35.729Z,76764.44
2023-05-10T00:09:08.907Z,76758.50
2023-05-10T00:10:42.350Z,76754.53
2023-05-10T00:12:15.771Z,76750.59
2023-05-10T00:13:49.291Z,76752.56
2023-05-10T00:15:22.870Z,76758.50
2023-05-10T00:16:56.325Z,76752.56
2023-05-10T00:18:29.391Z,76754.53
2023-05-10T00:20:02.937Z,76762.44
2023-05-10T00:21:36.081Z,76738.72
2023-05-10T00:23:09.637Z,76742.69
2023-05-10T00:24:42.741Z,76746.63
2023-05-10T00:26:18.083Z,76740.69
2023-05-10T00:27:58.549Z,76742.69
2023-05-10T00:29:33.067Z,76736.75
2023-05-10T00:31:06.097Z,76754.53
2023-05-10T00:32:39.491Z,76738.72
2023-05-10T00:34:12.583Z,76764.44
2023-05-10T00:35:46.023Z,76750.59
2023-05-10T00:37:19.249Z,76744.66
2023-05-10T00:38:52.994Z,76756.53
2023-05-10T00:40:26.286Z,76764.44
2023-05-10T00:42:05.913Z,76762.44
2023-05-10T00:43:39.397Z,76764.44
2023-05-10T00:45:13.163Z,76778.28
2023-05-10T00:46:46.734Z,76770.38
2023-05-10T00:48:20.979Z,76772.34
2023-05-10T00:49:54.383Z,76786.19
2023-05-10T00:51:28.082Z,76786.19
2023-05-10T00:53:02.972Z,76778.28
2023-05-10T00:54:36.598Z,76788.16
2023-05-10T00:56:09.910Z,76784.22
2023-05-10T00:57:43.550Z,76778.28
2023-05-10T00:59:20.426Z,76802.00
2023-05-10T01:00:54.115Z,76778.28
2023-05-10T01:02:27.511Z,76772.34
2023-05-10T01:04:01.498Z,76760.47
2023-05-10T01:05:34.793Z,76762.44
2023-05-10T01:07:08.140Z,76754.53
2023-05-10T01:08:42.193Z,76764.44
2023-05-10T01:10:16.103Z,76752.56
2023-05-10T01:11:50.789Z,76746.63
2023-05-10T01:13:39.107Z,76742.69
2023-05-10T01:15:17.709Z,76746.63
2023-05-10T01:16:51.927Z,76766.41
2023-05-10T01:18:25.692Z,76742.69
2023-05-10T01:19:58.915Z,76750.59
2023-05-10T01:21:45.737Z,76762.44
2023-05-10T01:23:30.260Z,76732.78
2023-05-10T01:25:15.336Z,76732.78
2023-05-10T01:27:13.591Z,76728.84
2023-05-10T01:29:35.585Z,76722.91
2023-05-10T01:31:36.216Z,76718.94
2023-05-10T01:33:20.048Z,76711.03
2023-05-10T01:35:20.124Z,76715.00
2023-05-10T01:36:59.234Z,76707.09
2023-05-10T01:38:57.681Z,76703.13
2023-05-10T01:40:37.905Z,76699.19
2023-05-10T01:42:40.875Z,76673.47
2023-05-10T01:44:33.045Z,76693.25
2023-05-10T01:46:19.315Z,76659.63
2023-05-10T01:48:11.736Z,76645.78
2023-05-10T01:49:56.043Z,76635.91
2023-05-10T01:51:37.678Z,76616.13
2023-05-10T01:53:13.007Z,76659.63
2023-05-10T01:55:01.929Z,76606.22
2023-05-10T01:56:41.585Z,76624.03
2023-05-10T01:58:24.460Z,76596.34
2023-05-10T01:59:58.872Z,76596.34
2023-05-10T02:01:33.267Z,76592.41
2023-05-10T02:03:10.021Z,76594.38
2023-05-10T02:04:46.524Z,76596.34
2023-05-10T02:06:21.930Z,76580.53
2023-05-10T02:07:55.793Z,76584.47
2023-05-10T02:09:31.846Z,76612.16
2023-05-10T02:11:06.681Z,76578.56
2023-05-10T02:12:45.647Z,76576.56
2023-05-10T02:14:20.565Z,76564.72
2023-05-10T02:15:56.197Z,76560.75
2023-05-10T02:17:32.148Z,76566.69
2023-05-10T02:19:06.141Z,76564.72
2023-05-10T02:20:41.169Z,76596.34
2023-05-10T02:22:14.891Z,76556.81
2023-05-10T02:23:52.528Z,76537.03
2023-05-10T02:25:28.547Z,76535.06
2023-05-10T02:27:03.995Z,76604.25
2023-05-10T02:28:39.038Z,76537.03
2023-05-10T02:30:14.543Z,76548.88
2023-05-10T02:31:49.109Z,76542.97
2023-05-10T02:33:23.625Z,76548.88
2023-05-10T02:34:58.853Z,76537.03
2023-05-10T02:36:32.817Z,76535.06
2023-05-10T02:38:08.155Z,76521.22
2023-05-10T02:39:45.238Z,76523.19
2023-05-10T02:41:19.792Z,76542.97
2023-05-10T02:42:56.131Z,76515.28
2023-05-10T02:44:32.517Z,76529.13
2023-05-10T02:46:06.029Z,76513.28
2023-05-10T02:47:40.259Z,76511.31
2023-05-10T02:49:14.018Z,76497.47
2023-05-10T02:50:52.709Z,76491.53
2023-05-10T02:52:32.681Z,76493.53
2023-05-10T02:54:14.186Z,76485.63
2023-05-10T02:55:53.431Z,76483.63
2023-05-10T02:57:35.931Z,76469.78
2023-05-10T02:59:09.255Z,76461.88
2023-05-10T03:00:42.525Z,76457.94
2023-05-10T03:02:15.851Z,76457.94
2023-05-10T03:03:49.150Z,76461.88
2023-05-10T03:05:22.819Z,76448.03
2023-05-10T03:06:56.432Z,76426.28
2023-05-10T03:08:30.831Z,76424.31
2023-05-10T03:10:05.079Z,76426.28
2023-05-10T03:11:42.977Z,76406.53
2023-05-10T03:13:36.867Z,76396.63
2023-05-10T03:15:21.774Z,76384.78
2023-05-10T03:17:17.534Z,76408.50
2023-05-10T03:19:14.263Z,76372.91
2023-05-10T03:20:57.104Z,76359.06
2023-05-10T03:22:33.951Z,76327.44
2023-05-10T03:24:09.683Z,76319.53
2023-05-10T03:25:45.183Z,76283.94
2023-05-10T03:27:19.324Z,76279.97
2023-05-10T03:28:54.015Z,76256.25
2023-05-10T03:30:30.812Z,76240.44
2023-05-10T03:32:04.258Z,76260.22
2023-05-10T03:33:48.332Z,76236.47
2023-05-10T03:35:25.135Z,76202.88
2023-05-10T03:36:58.521Z,76198.91
2023-05-10T03:38:33.832Z,76206.81
2023-05-10T03:40:07.733Z,76196.94
2023-05-10T03:41:43.164Z,76240.44
2023-05-10T03:43:16.364Z,76185.06
2023-05-10T03:44:50.902Z,76155.41
2023-05-10T03:46:24.280Z,76137.63
2023-05-10T03:47:58.334Z,76090.16
2023-05-10T03:49:31.979Z,76044.69
2023-05-10T03:51:05.860Z,76024.91
2023-05-10T03:52:40.556Z,75977.47
2023-05-10T03:54:14.210Z,75924.09
2023-05-10T03:55:47.847Z,75920.13
2023-05-10T03:57:21.023Z,75930.03
2023-05-10T03:58:54.542Z,75926.06
2023-05-10T04:00:27.706Z,75932.00
2023-05-10T04:02:02.336Z,75951.78
2023-05-10T04:03:38.028Z,76011.09
2023-05-10T04:05:12.702Z,75999.22
2023-05-10T04:06:46.532Z,75991.31
2023-05-10T04:08:20.058Z,75977.47
2023-05-10T04:09:53.581Z,75967.59
2023-05-10T04:11:29.417Z,76015.03
2023-05-10T04:13:02.656Z,75987.34
2023-05-10T04:14:35.998Z,75991.31
2023-05-10T04:16:09.273Z,76011.09
2023-05-10T04:17:42.549Z,75983.41
2023-05-10T04:19:15.833Z,75963.63
2023-05-10T04:20:49.001Z,75959.69
2023-05-10T04:22:22.295Z,75924.09
2023-05-10T04:23:55.628Z,75856.88
2023-05-10T04:25:28.937Z,75848.97
2023-05-10T04:27:02.265Z,75848.97
2023-05-10T04:28:35.458Z,75856.88
2023-05-10T04:30:09.149Z,75872.69
2023-05-10T04:31:42.258Z,75858.84
2023-05-10T04:33:16.034Z,75843.03
2023-05-10T04:34:49.270Z,75655.22
2023-05-10T04:36:22.688Z,75534.63
2023-05-10T04:37:56.269Z,75421.94
2023-05-10T04:39:29.452Z,75410.09
2023-05-10T04:41:07.589Z,75447.66
2023-05-10T04:42:43.031Z,75445.66
2023-05-10T04:44:16.400Z,75447.66
2023-05-10T04:45:49.829Z,75459.50
2023-05-10T04:47:22.938Z,75548.47
2023-05-10T04:48:56.339Z,75564.28
2023-05-10T04:50:29.558Z,75593.94
2023-05-10T04:52:02.952Z,75631.50
2023-05-10T04:53:36.210Z,75641.38
2023-05-10T04:55:11.164Z,75540.56
2023-05-10T04:56:44.503Z,75550.44
2023-05-10T04:58:17.994Z,75582.06
2023-05-10T04:59:51.441Z,75568.22
2023-05-10T05:01:24.911Z,75520.78
2023-05-10T05:02:58.389Z,75554.41
2023-05-10T05:04:32.418Z,75564.28
2023-05-10T05:06:05.795Z,75589.97
2023-05-10T05:07:41.651Z,75566.25
2023-05-10T05:09:14.860Z,75730.34
2023-05-10T05:10:51.486Z,75726.38
2023-05-10T05:12:24.988Z,75724.41
2023-05-10T05:14:00.465Z,75708.59
2023-05-10T05:15:33.718Z,75758.03
2023-05-10T05:17:07.292Z,75777.78
2023-05-10T05:18:41.023Z,75797.56
2023-05-10T05:20:14.779Z,75854.91
2023-05-10T05:21:48.123Z,75848.97
2023-05-10T05:23:22.255Z,75843.03
2023-05-10T05:24:56.127Z,75884.56
2023-05-10T05:26:29.310Z,75896.41
2023-05-10T05:28:03.001Z,75908.28
2023-05-10T05:29:36.447Z,75920.13
2023-05-10T05:31:09.978Z,75951.78
2023-05-10T05:32:43.621Z,75983.41
2023-05-10T05:34:16.784Z,76001.19
2023-05-10T05:35:52.070Z,75991.31
2023-05-10T05:37:25.774Z,75953.75
2023-05-10T05:38:59.324Z,75987.34
2023-05-10T05:40:32.596Z,75971.53
2023-05-10T05:42:06.574Z,75959.69
2023-05-10T05:43:39.809Z,75949.78
2023-05-10T05:45:15.018Z,75967.59
2023-05-10T05:46:48.263Z,75957.69
2023-05-10T05:48:21.740Z,75932.00
2023-05-10T05:49:55.255Z,75935.94
2023-05-10T05:51:28.453Z,76005.16
2023-05-10T05:53:01.625Z,75983.41
2023-05-10T05:54:35.755Z,75995.25
2023-05-10T05:56:09.420Z,75987.34
2023-05-10T05:57:42.899Z,75981.44
2023-05-10T05:59:16.040Z,75979.44
2023-05-10T06:00:49.869Z,76007.13
2023-05-10T06:02:23.247Z,76026.91
2023-05-10T06:03:56.635Z,76011.09
2023-05-10T06:05:29.994Z,75991.31
2023-05-10T06:07:03.273Z,75973.50
2023-05-10T06:08:36.712Z,75967.59
2023-05-10T06:10:11.121Z,75928.03
2023-05-10T06:11:44.199Z,75908.28
2023-05-10T06:13:17.729Z,75910.25
2023-05-10T06:14:50.973Z,75918.16
2023-05-10T06:16:25.000Z,75882.56
2023-05-10T06:17:58.239Z,75904.31
2023-05-10T06:19:32.121Z,75884.56
2023-05-10T06:21:05.452Z,75852.91
2023-05-10T06:22:38.525Z,75821.28
2023-05-10T06:24:11.711Z,75785.69
2023-05-10T06:25:45.191Z,75825.25
2023-05-10T06:27:18.600Z,75821.28
2023-05-10T06:28:51.929Z,75805.47
2023-05-10T06:30:30.369Z,75833.16
2023-05-10T06:32:04.583Z,75896.41
2023-05-10T06:33:37.938Z,75870.72
2023-05-10T06:35:11.472Z,75841.06
2023-05-10T06:36:44.595Z,75854.91
2023-05-10T06:38:17.976Z,75854.91
2023-05-10T06:39:51.024Z,75888.50
2023-05-10T06:41:25.172Z,75850.94
2023-05-10T06:42:58.602Z,75811.41
2023-05-10T06:44:32.127Z,75829.19
2023-05-10T06:46:05.177Z,75839.06
2023-05-10T06:47:39.396Z,75858.84
2023-05-10T06:49:12.884Z,75805.47
2023-05-10T06:50:46.391Z,75837.09
2023-05-10T06:52:24.916Z,75835.13
2023-05-10T06:54:01.790Z,75841.06
2023-05-10T06:55:35.045Z,75860.81
2023-05-10T06:57:16.131Z,75862.81
2023-05-10T06:58:57.143Z,75843.03
2023-05-10T07:00:30.330Z,75846.97
2023-05-10T07:02:03.626Z,75843.03
2023-05-10T07:03:36.991Z,75829.19
2023-05-10T07:05:10.626Z,75846.97
2023-05-10T07:06:44.207Z,75833.16
2023-05-10T07:08:17.247Z,75821.28
2023-05-10T07:09:53.632Z,75793.59
2023-05-10T07:11:27.214Z,75779.75
2023-05-10T07:13:00.703Z,75769.88
2023-05-10T07:14:33.983Z,75791.63
2023-05-10T07:16:07.811Z,75801.50
2023-05-10T07:17:43.229Z,75793.59
2023-05-10T07:19:18.233Z,75791.63
2023-05-10T07:20:51.255Z,75813.38
2023-05-10T07:22:24.481Z,75791.63
2023-05-10T07:23:57.768Z,75795.59
2023-05-10T07:25:31.331Z,75801.50
2023-05-10T07:27:04.596Z,75783.72
2023-05-10T07:28:41.736Z,75750.13
2023-05-10T07:30:15.386Z,75781.75
2023-05-10T07:31:48.793Z,75773.84
2023-05-10T07:33:21.995Z,75760.00
2023-05-10T07:34:55.877Z,75726.38
2023-05-10T07:36:29.188Z,75700.69
2023-05-10T07:38:03.155Z,75728.38
2023-05-10T07:39:36.299Z,75726.38
2023-05-10T07:41:09.785Z,75698.72
2023-05-10T07:42:42.838Z,75665.09
2023-05-10T07:44:16.279Z,75651.25
2023-05-10T07:45:49.929Z,75647.31
2023-05-10T07:47:23.680Z,75647.31
2023-05-10T07:48:57.136Z,75623.59
2023-05-10T07:50:30.771Z,75659.16
2023-05-10T07:52:05.225Z,75639.41
2023-05-10T07:53:39.384Z,75655.22
2023-05-10T07:55:12.682Z,75637.44
2023-05-10T07:56:48.829Z,75597.88
2023-05-10T07:58:21.992Z,75611.72
2023-05-10T07:59:55.228Z,75562.31
2023-05-10T08:01:31.700Z,75520.78
2023-05-10T08:03:05.359Z,75512.88
2023-05-10T08:04:38.695Z,75528.69
2023-05-10T08:06:12.010Z,75582.06
2023-05-10T08:07:45.397Z,75534.63
2023-05-10T08:09:19.422Z,75510.91
2023-05-10T08:10:53.270Z,75489.16
2023-05-10T08:12:26.665Z,75526.72
2023-05-10T08:14:00.338Z,75481.25
2023-05-10T08:15:33.693Z,75457.53
2023-05-10T08:17:07.145Z,75453.56
2023-05-10T08:18:41.302Z,75390.31
2023-05-10T08:20:18.015Z,75402.19
2023-05-10T08:21:51.250Z,75441.72
2023-05-10T08:23:24.520Z,75449.63
2023-05-10T08:24:57.737Z,75449.63
2023-05-10T08:26:30.816Z,75449.63
2023-05-10T08:28:03.990Z,75429.84
2023-05-10T08:29:49.502Z,75508.94
2023-05-10T08:31:23.416Z,75504.97
2023-05-10T08:32:57.164Z,75514.84
2023-05-10T08:34:32.723Z,75495.09
2023-05-10T08:36:06.285Z,75455.56
2023-05-10T08:37:40.571Z,75461.47
2023-05-10T08:39:29.299Z,75437.75
2023-05-10T08:41:05.087Z,75414.03
2023-05-10T08:42:42.005Z,75410.09
2023-05-10T08:44:16.381Z,75431.84
2023-05-10T08:45:51.675Z,75457.53
2023-05-10T08:47:26.631Z,75477.28
2023-05-10T08:49:03.566Z,75479.28
2023-05-10T08:50:42.400Z,75439.75
2023-05-10T08:52:18.075Z,75467.41
2023-05-10T08:53:51.690Z,75467.41
2023-05-10T08:55:25.685Z,75463.47
2023-05-10T08:56:58.732Z,75419.97
2023-05-10T08:58:33.101Z,75439.75
2023-05-10T09:00:07.225Z,75441.72
2023-05-10T09:01:44.074Z,75386.38
2023-05-10T09:03:18.438Z,75408.09
2023-05-10T09:04:54.995Z,75443.69
2023-05-10T09:06:30.142Z,75414.03
2023-05-10T09:08:04.200Z,75427.88
2023-05-10T09:09:41.811Z,75382.41
2023-05-10T09:11:18.984Z,75416.00
2023-05-10T09:12:53.439Z,75404.16
2023-05-10T09:14:26.894Z,75394.28
2023-05-10T09:16:09.887Z,75382.41
2023-05-10T09:17:54.008Z,75370.53
2023-05-10T09:19:27.572Z,75410.09
2023-05-10T09:21:00.865Z,75441.72
2023-05-10T09:22:34.991Z,75416.00
2023-05-10T09:24:09.509Z,75348.81
2023-05-10T09:25:45.541Z,75394.28
2023-05-10T09:27:18.689Z,75406.13
2023-05-10T09:29:00.791Z,75425.91
2023-05-10T09:30:34.384Z,75392.28
2023-05-10T09:32:07.714Z,75376.47
2023-05-10T09:33:50.681Z,75317.19
2023-05-10T09:35:29.900Z,75283.56
2023-05-10T09:37:05.722Z,75329.03
2023-05-10T09:38:52.707Z,75297.41
2023-05-10T09:40:27.670Z,75307.28
2023-05-10T09:42:07.961Z,75342.88
2023-05-10T09:43:41.783Z,75368.56
2023-05-10T09:45:15.412Z,75327.06
2023-05-10T09:46:54.122Z,75334.97
2023-05-10T09:48:27.283Z,75287.53
2023-05-10T09:50:04.912Z,75275.66
2023-05-10T09:51:38.905Z,75240.09
2023-05-10T09:53:20.513Z,75285.53
2023-05-10T09:54:55.648Z,75313.22
2023-05-10T09:56:40.429Z,75287.53
2023-05-10T09:58:15.567Z,75240.09
2023-05-10T09:59:52.453Z,75226.25
2023-05-10T10:01:28.307Z,75263.81
2023-05-10T10:03:02.093Z,75315.19
2023-05-10T10:04:41.284Z,75307.28
2023-05-10T10:06:29.592Z,75287.53
2023-05-10T10:08:07.776Z,75352.75
2023-05-10T10:09:41.575Z,75325.09
2023-05-10T10:11:15.221Z,75319.16
2023-05-10T10:12:48.546Z,75279.63
2023-05-10T10:14:25.900Z,75267.75
2023-05-10T10:15:59.752Z,75287.53
2023-05-10T10:17:34.111Z,75311.25
2023-05-10T10:19:08.248Z,75265.78
2023-05-10T10:20:41.912Z,75279.63
2023-05-10T10:22:15.244Z,75295.44
2023-05-10T10:23:48.518Z,75338.91
2023-05-10T10:25:25.972Z,75356.72
2023-05-10T10:27:21.784Z,75344.84
2023-05-10T10:29:25.244Z,75382.41
2023-05-10T10:31:05.546Z,75408.09
2023-05-10T10:33:16.499Z,75390.31
2023-05-10T10:35:00.394Z,75384.38
2023-05-10T10:36:35.267Z,75390.31
2023-05-10T10:38:10.726Z,75358.69
2023-05-10T10:39:43.768Z,75364.63
2023-05-10T10:41:45.160Z,75394.28
2023-05-10T10:43:29.362Z,75338.91
2023-05-10T10:45:15.597Z,75334.97
2023-05-10T10:47:24.316Z,75319.16
2023-05-10T10:49:13.015Z,75319.16
2023-05-10T10:50:47.839Z,75344.84
2023-05-10T10:52:39.829Z,75313.22
2023-05-10T10:54:14.698Z,75342.88
2023-05-10T10:55:49.590Z,75342.88
2023-05-10T10:57:27.633Z,75362.63
2023-05-10T10:59:01.577Z,75366.59
2023-05-10T11:00:39.342Z,75331.00
2023-05-10T11:02:36.372Z,75309.28
2023-05-10T11:04:09.802Z,75362.63
2023-05-10T11:05:47.954Z,75358.69
2023-05-10T11:07:21.589Z,75305.31
2023-05-10T11:08:54.860Z,75331.00
2023-05-10T11:10:28.922Z,75279.63
2023-05-10T11:12:09.578Z,75267.75
2023-05-10T11:13:50.012Z,75253.91
2023-05-10T11:15:31.852Z,75259.84
2023-05-10T11:17:25.523Z,75263.81
2023-05-10T11:19:03.949Z,75287.53
2023-05-10T11:20:43.368Z,75248.00
2023-05-10T11:22:16.710Z,75228.22
2023-05-10T11:23:57.573Z,75263.81
2023-05-10T11:25:33.204Z,75178.81
2023-05-10T11:27:07.464Z,75153.09
2023-05-10T11:28:48.169Z,75214.38
2023-05-10T11:30:21.923Z,75253.91
2023-05-10T11:31:59.454Z,75299.38
2023-05-10T11:33:55.146Z,75277.63
2023-05-10T11:35:30.047Z,75319.16
2023-05-10T11:37:03.220Z,75291.47
2023-05-10T11:38:36.530Z,75259.84
2023-05-10T11:40:11.048Z,75263.81
2023-05-10T11:41:44.284Z,75224.28
2023-05-10T11:43:17.467Z,75238.09
2023-05-10T11:44:50.637Z,75301.38
2023-05-10T11:46:28.898Z,75299.38
2023-05-10T11:48:03.630Z,75307.28
2023-05-10T11:49:42.802Z,75275.66
2023-05-10T11:51:26.725Z,75281.59
2023-05-10T11:53:00.151Z,75287.53
2023-05-10T11:54:36.355Z,75265.78
2023-05-10T11:56:11.677Z,75285.53
2023-05-10T11:57:47.343Z,75291.47
2023-05-10T11:59:20.941Z,75311.25
2023-05-10T12:00:57.372Z,75315.19
2023-05-10T12:02:31.685Z,75263.81
2023-05-10T12:04:05.272Z,75251.94
2023-05-10T12:05:41.589Z,75287.53
2023-05-10T12:07:19.122Z,75299.38
2023-05-10T12:08:54.884Z,75289.50
2023-05-10T12:10:28.671Z,75295.44
2023-05-10T12:12:03.843Z,75307.28
2023-05-10T12:13:42.019Z,75309.28
2023-05-10T12:15:23.211Z,75305.31
2023-05-10T12:16:58.814Z,75303.34
2023-05-10T12:18:31.950Z,75301.38
2023-05-10T12:20:34.633Z,75283.56
2023-05-10T12:22:11.399Z,75299.38
2023-05-10T12:23:47.265Z,75309.28
2023-05-10T12:25:21.841Z,75338.91
2023-05-10T12:28:46.611Z,75315.19
2023-05-10T12:30:27.216Z,75331.00
2023-05-10T12:32:01.602Z,75321.13
2023-05-10T12:33:45.320Z,75299.38
2023-05-10T12:35:18.852Z,75321.13
2023-05-10T12:36:54.357Z,75317.19
2023-05-10T12:38:30.856Z,75307.28
2023-05-10T12:40:06.349Z,75303.34
2023-05-10T12:41:40.897Z,75313.22
2023-05-10T12:43:16.292Z,75319.16
2023-05-10T12:44:49.509Z,75311.25
2023-05-10T12:46:22.676Z,75291.47
2023-05-10T12:47:56.393Z,75301.38
2023-05-10T12:49:29.686Z,75295.44
2023-05-10T12:51:04.073Z,75299.38
2023-05-10T12:52:37.591Z,75342.88
2023-05-10T12:54:11.279Z,75327.06
2023-05-10T12:55:45.376Z,75313.22
2023-05-10T12:57:18.644Z,75301.38
2023-05-10T12:58:52.368Z,75346.81
2023-05-10T13:00:25.906Z,75338.91
2023-05-10T13:01:59.615Z,75364.63
2023-05-10T13:03:33.495Z,75376.47
2023-05-10T13:05:07.432Z,75376.47
2023-05-10T13:06:40.999Z,75386.38
2023-05-10T13:08:14.123Z,75396.25
2023-05-10T13:09:47.393Z,75416.00
2023-05-10T13:11:22.342Z,75412.06
2023-05-10T13:12:56.034Z,75374.50
2023-05-10T13:14:29.671Z,75378.47
2023-05-10T13:16:03.182Z,75374.50
2023-05-10T13:17:36.363Z,75388.34
2023-05-10T13:19:09.877Z,75378.47
2023-05-10T13:20:44.396Z,75380.44
2023-05-10T13:22:25.600Z,75404.16
2023-05-10T13:24:07.263Z,75390.31
2023-05-10T13:25:40.880Z,75390.31
2023-05-10T13:27:14.274Z,75384.38
2023-05-10T13:28:47.588Z,75362.63
2023-05-10T13:30:20.828Z,75390.31
2023-05-10T13:31:54.517Z,75394.28
2023-05-10T13:33:27.829Z,75372.53
2023-05-10T13:35:01.028Z,75378.47
2023-05-10T13:36:34.455Z,75382.41
2023-05-10T13:38:09.350Z,75386.38
2023-05-10T13:39:42.674Z,75364.63
2023-05-10T13:41:15.972Z,75386.38
2023-05-10T13:42:49.244Z,75402.19
2023-05-10T13:44:22.939Z,75406.13
2023-05-10T13:45:56.220Z,75400.19
2023-05-10T13:47:29.672Z,75382.41
2023-05-10T13:49:03.442Z,75386.38
2023-05-10T13:50:37.203Z,75421.94
2023-05-10T13:52:11.383Z,75402.19
2023-05-10T13:53:44.455Z,75390.31
2023-05-10T13:55:17.861Z,75400.19
2023-05-10T13:56:52.869Z,75404.16
2023-05-10T13:58:26.054Z,75410.09
2023-05-10T13:59:59.130Z,75425.91
2023-05-10T14:01:32.669Z,75418.00
2023-05-10T14:03:08.157Z,75423.94
2023-05-10T14:04:41.510Z,75421.94
2023-05-10T14:06:14.634Z,75418.00
2023-05-10T14:07:48.041Z,75437.75
2023-05-10T14:09:21.899Z,75431.84
2023-05-10T14:10:55.251Z,75404.16
2023-05-10T14:12:29.124Z,75388.34
2023-05-10T14:14:02.638Z,75398.22
2023-05-10T14:15:36.157Z,75412.06
2023-05-10T14:17:11.444Z,75414.03
2023-05-10T14:18:45.599Z,75421.94
2023-05-10T14:20:18.805Z,75431.84
2023-05-10T14:21:53.398Z,75441.72
2023-05-10T14:23:27.053Z,75441.72
2023-05-10T14:25:00.246Z,75465.44
2023-05-10T14:26:33.732Z,75485.19
2023-05-10T14:28:07.676Z,75495.09
2023-05-10T14:29:41.031Z,75489.16
2023-05-10T14:31:15.491Z,75497.06
2023-05-10T14:32:48.709Z,75497.06
2023-05-10T14:34:22.342Z,75516.84
2023-05-10T14:35:58.126Z,75514.84
2023-05-10T14:37:31.416Z,75534.63
2023-05-10T14:39:05.311Z,75546.50
2023-05-10T14:40:38.881Z,75556.38
2023-05-10T14:42:11.926Z,75560.31
2023-05-10T14:43:45.407Z,75568.22
2023-05-10T14:45:21.855Z,75603.81
2023-05-10T14:46:55.247Z,75574.16
2023-05-10T14:48:28.415Z,75580.09
2023-05-10T14:50:01.683Z,75586.03
2023-05-10T14:51:34.980Z,75580.09
2023-05-10T14:53:08.510Z,75591.97
2023-05-10T14:54:41.912Z,75591.97
2023-05-10T14:56:14.916Z,75603.81
2023-05-10T14:57:48.866Z,75605.78
2023-05-10T14:59:22.466Z,75609.75
2023-05-10T15:00:56.298Z,75617.66
2023-05-10T15:02:30.273Z,75623.59
2023-05-10T15:04:05.135Z,75637.44
2023-05-10T15:05:39.319Z,75647.31
2023-05-10T15:07:15.742Z,75655.22
2023-05-10T15:08:48.860Z,75661.16
2023-05-10T15:10:22.032Z,75669.06
2023-05-10T15:11:56.340Z,75682.91
2023-05-10T15:13:29.628Z,75690.81
2023-05-10T15:15:03.456Z,75684.88
2023-05-10T15:16:37.118Z,75700.69
2023-05-10T15:18:11.593Z,75714.53
2023-05-10T15:19:44.856Z,75718.47
2023-05-10T15:21:17.970Z,75718.47
2023-05-10T15:22:51.245Z,75728.38
2023-05-10T15:24:24.750Z,75738.25
2023-05-10T15:25:58.464Z,75746.16
2023-05-10T15:27:31.598Z,75779.75
2023-05-10T15:29:04.952Z,75752.09
2023-05-10T15:30:38.252Z,75761.97
2023-05-10T15:32:11.655Z,75765.94
2023-05-10T15:33:45.019Z,75777.78
2023-05-10T15:35:19.024Z,75773.84
2023-05-10T15:36:52.366Z,75785.69
2023-05-10T15:38:25.394Z,75793.59
2023-05-10T15:40:05.085Z,75803.50
2023-05-10T15:41:39.574Z,75817.31
2023-05-10T15:43:12.949Z,75817.31
2023-05-10T15:44:46.299Z,75823.25
2023-05-10T15:46:19.591Z,75823.25
2023-05-10T15:47:52.859Z,75833.16
2023-05-10T15:49:26.146Z,75837.09
2023-05-10T15:50:59.945Z,75848.97
2023-05-10T15:52:33.657Z,75852.91
2023-05-10T15:54:08.427Z,75860.81
2023-05-10T15:55:41.971Z,75876.63
2023-05-10T15:57:15.212Z,75880.59
2023-05-10T15:58:48.518Z,75892.47
2023-05-10T16:00:21.862Z,75896.41
2023-05-10T16:01:55.105Z,75904.31
2023-05-10T16:03:28.680Z,75910.25
2023-05-10T16:05:02.175Z,75926.06
2023-05-10T16:06:38.251Z,75926.06
2023-05-10T16:08:11.581Z,75939.91
2023-05-10T16:09:44.840Z,75935.94
2023-05-10T16:11:17.992Z,75959.69
2023-05-10T16:12:51.375Z,75987.34
2023-05-10T16:14:25.229Z,75975.50
2023-05-10T16:15:58.638Z,75997.25
2023-05-10T16:17:32.604Z,76019.00
2023-05-10T16:19:06.034Z,76034.81
2023-05-10T16:20:39.386Z,76040.75
2023-05-10T16:22:12.497Z,76054.56
2023-05-10T16:23:46.921Z,76068.41
2023-05-10T16:25:20.453Z,76082.25
2023-05-10T16:26:53.828Z,76086.22
2023-05-10T16:28:27.172Z,76100.06
2023-05-10T16:30:00.718Z,76113.91
2023-05-10T16:31:34.637Z,76125.75
2023-05-10T16:33:08.460Z,76139.59
2023-05-10T16:34:42.114Z,76143.56
2023-05-10T16:36:15.408Z,76171.22
2023-05-10T16:37:48.794Z,76157.38
2023-05-10T16:39:22.185Z,76177.16
2023-05-10T16:40:57.827Z,76198.91
2023-05-10T16:42:31.143Z,76181.13
2023-05-10T16:44:04.765Z,76189.03
2023-05-10T16:45:38.008Z,76189.03
2023-05-10T16:47:11.239Z,76202.88
2023-05-10T16:48:44.496Z,76206.81
2023-05-10T16:50:17.837Z,76206.81
2023-05-10T16:51:50.991Z,76204.84
2023-05-10T16:53:24.280Z,76212.75
2023-05-10T16:54:57.563Z,76216.72
2023-05-10T16:56:30.955Z,76232.53
2023-05-10T16:58:04.245Z,76244.38
2023-05-10T16:59:37.888Z,76224.63
2023-05-10T17:01:11.438Z,76224.63
2023-05-10T17:02:44.913Z,76232.53
2023-05-10T17:04:18.810Z,76224.63
2023-05-10T17:05:52.287Z,76232.53
2023-05-10T17:07:26.357Z,76236.47
2023-05-10T17:09:01.515Z,76232.53
2023-05-10T17:10:35.111Z,76236.47
2023-05-10T17:12:07.993Z,76228.56
2023-05-10T17:13:41.493Z,76232.53
2023-05-10T17:15:16.945Z,76228.56
2023-05-10T17:16:53.215Z,76236.47
2023-05-10T17:18:27.118Z,76234.50
2023-05-10T17:20:01.001Z,76244.38
2023-05-10T17:21:34.234Z,76248.34
2023-05-10T17:23:07.567Z,76258.22
2023-05-10T17:24:41.135Z,76252.28
2023-05-10T17:26:14.178Z,76262.19
2023-05-10T17:27:47.249Z,76256.25
2023-05-10T17:29:20.437Z,76260.22
2023-05-10T17:30:58.123Z,76276.03
2023-05-10T17:32:31.482Z,76256.25
2023-05-10T17:34:05.870Z,76260.22
2023-05-10T17:35:39.075Z,76270.09
2023-05-10T17:37:12.543Z,76276.03
2023-05-10T17:38:45.572Z,76289.88
2023-05-10T17:40:18.898Z,76297.78
2023-05-10T17:41:53.283Z,76311.63
2023-05-10T17:43:26.655Z,76309.63
2023-05-10T17:45:00.007Z,76315.56
2023-05-10T17:46:33.912Z,76333.38
2023-05-10T17:48:08.297Z,76351.16
2023-05-10T17:49:41.732Z,76384.78
2023-05-10T17:51:15.746Z,76390.69
2023-05-10T17:52:49.138Z,76396.63
2023-05-10T17:54:25.231Z,76410.47
2023-05-10T17:55:59.259Z,76416.41
2023-05-10T17:57:32.558Z,76422.34
2023-05-10T17:59:05.991Z,76438.16
2023-05-10T18:00:40.459Z,76438.16
2023-05-10T18:02:14.625Z,76442.13
2023-05-10T18:03:49.971Z,76455.97
2023-05-10T18:05:24.498Z,76461.88
2023-05-10T18:07:02.005Z,76461.88
2023-05-10T18:08:35.262Z,76465.84
2023-05-10T18:10:09.202Z,76467.81
2023-05-10T18:11:58.564Z,76461.88
2023-05-10T18:13:32.605Z,76473.75
2023-05-10T18:15:09.353Z,76469.78
2023-05-10T18:16:43.546Z,76475.72
2023-05-10T18:18:17.501Z,76499.47
2023-05-10T18:19:50.715Z,76477.72
2023-05-10T18:21:23.874Z,76483.63
2023-05-10T18:22:58.162Z,76487.59
2023-05-10T18:24:38.366Z,76503.41
2023-05-10T18:26:13.668Z,76507.38
2023-05-10T18:27:46.931Z,76513.28
2023-05-10T18:29:20.070Z,76517.25
2023-05-10T18:30:54.736Z,76521.22
2023-05-10T18:32:28.327Z,76529.13
2023-05-10T18:34:01.585Z,76548.88
2023-05-10T18:35:37.821Z,76560.75
2023-05-10T18:37:34.452Z,76616.13
2023-05-10T18:39:31.232Z,76600.31
2023-05-10T18:41:04.587Z,76624.03
2023-05-10T18:42:37.784Z,76639.84
2023-05-10T18:44:13.757Z,76651.72
2023-05-10T18:45:51.320Z,76667.53